Time;durP1;ratioP1;P1;durP2;ratioP2;P2;SDS_P1;SDS_P2;PMS_P1;PMS_P2;Temp;Humidity;BMP_temperature;BMP_pressure;BME280_temperature;BME280_humidity;BME280_pressure;Samples;Min_cycle;Max_cycle;Signal;HPM_P1;HPM_P2
2022/06/16 00:01:57;;;;;;;30.47;28.67;;;20.20;61.60;;;;;;4963843;28;20956;-70
2022/06/16 00:04:24;;;;;;;31.07;29.00;;;20.20;61.50;;;;;;4966942;28;20521;-70
2022/06/16 00:06:53;;;;;;;29.20;27.43;;;20.10;61.80;;;;;;4969046;28;20541;-70
2022/06/16 00:09:20;;;;;;;30.60;28.57;;;20.10;61.90;;;;;;4969936;28;20459;-70
2022/06/16 00:11:49;;;;;;;29.47;27.80;;;20.10;61.80;;;;;;4968190;28;20533;-70
2022/06/16 00:14:16;;;;;;;29.83;28.13;;;20.10;61.70;;;;;;4978462;28;20589;-70
2022/06/16 00:16:43;;;;;;;29.93;28.33;;;20.10;61.50;;;;;;4969234;28;20993;-71
2022/06/16 00:19:10;;;;;;;30.63;28.90;;;20.10;61.60;;;;;;4960868;28;20518;-70
2022/06/16 00:21:37;;;;;;;30.10;28.43;;;20.10;61.80;;;;;;4980959;28;20466;-71
2022/06/16 00:24:05;;;;;;;29.63;27.97;;;20.10;61.50;;;;;;4967431;28;20466;-72
2022/06/16 00:26:32;;;;;;;30.43;28.40;;;20.10;60.90;;;;;;4971604;28;20499;-72
2022/06/16 00:29:00;;;;;;;29.93;28.13;;;20.10;60.50;;;;;;4966020;28;20533;-72
2022/06/16 00:31:27;;;;;;;29.63;27.73;;;20.00;60.50;;;;;;4976884;28;20925;-74
2022/06/16 00:33:54;;;;;;;29.63;27.87;;;20.00;60.50;;;;;;4969746;28;20511;-72
2022/06/16 00:36:21;;;;;;;29.87;28.17;;;20.00;60.80;;;;;;4967113;28;21072;-73
2022/06/16 00:38:48;;;;;;;30.23;28.33;;;20.00;61.50;;;;;;4968876;28;20514;-75
2022/06/16 00:41:15;;;;;;;29.80;28.00;;;19.80;62.60;;;;;;4968779;28;21063;-73
2022/06/16 00:43:42;;;;;;;30.83;28.60;;;19.60;63.30;;;;;;4969320;28;20479;-72
2022/06/16 00:46:14;;;;;;;30.10;28.30;;;19.60;63.50;;;;;;4978117;28;20481;-72
2022/06/16 00:48:45;;;;;;;30.00;28.30;;;19.40;64.00;;;;;;4967022;28;20451;-72
2022/06/16 00:51:17;;;;;;;29.50;27.60;;;19.40;64.10;;;;;;4973938;28;20553;-72
2022/06/16 00:53:45;;;;;;;29.13;27.40;;;19.40;63.80;;;;;;4969609;28;20533;-72
2022/06/16 00:56:16;;;;;;;30.53;28.40;;;19.40;63.80;;;;;;4979877;28;20488;-72
2022/06/16 00:58:48;;;;;;;30.00;28.20;;;19.40;63.60;;;;;;4969968;28;20523;-72
2022/06/16 01:01:20;;;;;;;29.53;27.70;;;19.40;63.50;;;;;;4972296;28;20462;-73
2022/06/16 01:06:32;;;;;;;28.53;26.93;;;19.50;62.90;;;;;;4966166;28;20474;-72
2022/06/16 01:09:02;;;;;;;28.77;26.90;;;19.40;63.00;;;;;;4971196;28;20618;-72
2022/06/16 01:14:38;;;;;;;28.40;26.80;;;19.30;63.00;;;;;;4964458;28;20482;-72
2022/06/16 01:17:14;;;;;;;28.40;26.80;;;19.30;63.10;;;;;;4965040;28;20507;-72
2022/06/16 01:20:05;;;;;;;28.40;26.90;;;19.30;63.20;;;;;;4970041;28;21080;-72
2022/06/16 01:22:54;;;;;;;29.30;27.53;;;19.10;63.70;;;;;;4968055;28;21004;-72
2022/06/16 01:25:31;;;;;;;29.50;27.80;;;19.00;64.10;;;;;;4976328;28;20455;-72
2022/06/16 01:28:20;;;;;;;29.40;27.67;;;19.00;64.40;;;;;;4964160;28;20486;-71
2022/06/16 01:30:54;;;;;;;28.80;27.10;;;19.00;64.60;;;;;;4964777;28;20465;-72
2022/06/16 01:33:26;;;;;;;28.70;27.00;;;18.90;64.70;;;;;;4957316;28;20482;-72
2022/06/16 01:36:04;;;;;;;28.93;27.33;;;18.80;65.10;;;;;;4972646;28;20516;-72
2022/06/16 01:38:39;;;;;;;30.00;28.20;;;18.70;65.40;;;;;;4961021;28;20889;-72
2022/06/16 01:41:14;;;;;;;30.30;28.40;;;18.60;65.80;;;;;;4977246;28;20458;-72
2022/06/16 01:43:46;;;;;;;29.60;27.90;;;18.60;65.60;;;;;;4961082;28;20547;-72
2022/06/16 01:46:21;;;;;;;29.67;27.97;;;18.50;65.50;;;;;;4974827;28;20487;-72
2022/06/16 01:48:54;;;;;;;28.80;27.20;;;18.50;65.50;;;;;;4970281;28;21090;-72
2022/06/16 01:51:27;;;;;;;28.90;27.30;;;18.50;65.30;;;;;;4968106;28;20467;-72
2022/06/16 01:53:59;;;;;;;29.97;27.97;;;18.60;65.20;;;;;;4964752;28;20499;-72
2022/06/16 01:56:29;;;;;;;29.63;27.83;;;18.60;64.70;;;;;;4980145;28;20487;-72
2022/06/16 01:59:01;;;;;;;29.67;27.97;;;18.60;64.50;;;;;;4972739;28;20991;-71
2022/06/16 02:01:34;;;;;;;29.60;27.70;;;18.60;64.70;;;;;;4978776;28;20513;-71
2022/06/16 02:04:07;;;;;;;28.90;27.10;;;18.50;65.00;;;;;;4962381;28;20953;-73
2022/06/16 02:06:38;;;;;;;28.90;27.30;;;18.30;65.50;;;;;;4971286;28;21201;-71
2022/06/16 02:09:10;;;;;;;29.03;27.20;;;18.30;65.90;;;;;;4976558;28;21063;-72
2022/06/16 02:11:38;;;;;;;28.83;27.13;;;18.20;66.40;;;;;;4967938;28;20825;-74
2022/06/16 02:14:20;;;;;;;28.83;27.10;;;18.20;66.30;;;;;;4967979;28;20482;-72
2022/06/16 02:16:50;;;;;;;28.90;27.20;;;18.10;66.50;;;;;;4969466;28;21163;-72
2022/06/16 02:19:21;;;;;;;28.53;26.87;;;18.10;66.40;;;;;;4974310;28;20542;-71
2022/06/16 02:21:50;;;;;;;30.33;28.43;;;18.10;66.40;;;;;;4966803;28;20944;-71
2022/06/16 02:24:19;;;;;;;28.47;26.87;;;18.10;66.50;;;;;;4969032;28;20849;-72
2022/06/16 02:26:47;;;;;;;28.00;26.20;;;18.10;66.50;;;;;;4971966;28;20482;-71
2022/06/16 02:29:25;;;;;;;28.50;26.30;;;18.20;66.20;;;;;;4969047;28;20462;-72
2022/06/16 02:32:02;;;;;;;28.73;27.07;;;18.20;66.20;;;;;;4958583;28;20463;-72
2022/06/16 02:34:38;;;;;;;28.00;26.30;;;18.20;66.00;;;;;;4966763;28;21005;-72
2022/06/16 02:37:24;;;;;;;30.60;28.57;;;18.20;66.00;;;;;;4975855;28;20537;-71
2022/06/16 02:40:09;;;;;;;29.50;27.70;;;18.20;65.70;;;;;;4977616;28;20456;-71
2022/06/16 02:42:44;;;;;;;28.67;26.67;;;18.20;65.80;;;;;;4967841;28;20466;-72
2022/06/16 02:45:18;;;;;;;29.20;27.40;;;18.20;65.50;;;;;;4963491;28;20515;-72
2022/06/16 02:47:57;;;;;;;29.43;27.73;;;18.20;65.10;;;;;;4978079;28;20999;-72
2022/06/16 02:50:36;;;;;;;28.00;26.50;;;18.30;64.70;;;;;;4978281;28;20820;-72
2022/06/16 02:53:13;;;;;;;28.23;26.73;;;18.30;64.40;;;;;;4963844;28;20475;-72
2022/06/16 02:55:45;;;;;;;28.20;26.40;;;18.30;64.30;;;;;;4968978;28;20486;-72
2022/06/16 02:58:17;;;;;;;28.10;26.40;;;18.30;64.10;;;;;;4965475;28;21012;-73
2022/06/16 03:00:47;;;;;;;27.93;26.23;;;18.30;64.30;;;;;;4968390;28;20542;-72
2022/06/16 03:03:21;;;;;;;28.40;26.60;;;18.30;64.30;;;;;;4965762;28;20518;-72
2022/06/16 03:05:51;;;;;;;28.73;26.93;;;18.40;64.30;;;;;;4964594;28;20585;-72
2022/06/16 03:08:18;;;;;;;28.63;26.90;;;18.40;64.00;;;;;;4981370;28;20459;-73
2022/06/16 03:10:51;;;;;;;29.97;27.97;;;18.40;64.00;;;;;;4970724;28;20535;-71
2022/06/16 03:13:19;;;;;;;28.60;26.90;;;18.50;64.00;;;;;;4966481;28;20523;-72
2022/06/16 03:15:46;;;;;;;29.90;27.90;;;18.50;63.80;;;;;;4967291;28;20497;-72
2022/06/16 03:18:13;;;;;;;28.70;27.00;;;18.50;64.20;;;;;;4968270;28;20490;-72
2022/06/16 03:20:41;;;;;;;29.00;27.30;;;18.50;64.00;;;;;;4968694;28;20562;-72
2022/06/16 03:23:08;;;;;;;29.10;27.50;;;18.50;64.10;;;;;;4970967;28;20654;-72
2022/06/16 03:25:36;;;;;;;28.50;26.80;;;18.50;64.10;;;;;;4971237;28;20545;-72
2022/06/16 03:28:03;;;;;;;28.50;26.80;;;18.50;64.30;;;;;;4973686;28;20501;-72
2022/06/16 03:30:30;;;;;;;29.07;27.30;;;18.50;64.40;;;;;;4970654;28;20461;-72
2022/06/16 03:32:57;;;;;;;29.13;27.43;;;18.50;64.40;;;;;;4967820;28;20554;-71
2022/06/16 03:35:24;;;;;;;27.90;26.40;;;18.60;64.40;;;;;;4972081;28;21207;-72
2022/06/16 03:37:53;;;;;;;28.67;27.07;;;18.60;64.10;;;;;;4968021;28;20598;-71
2022/06/16 03:40:20;;;;;;;27.87;26.27;;;18.60;64.10;;;;;;4960330;28;20494;-71
2022/06/16 03:42:48;;;;;;;28.13;26.53;;;18.70;64.20;;;;;;4970986;28;20462;-72
2022/06/16 03:45:15;;;;;;;28.60;26.83;;;18.90;63.70;;;;;;4969716;28;20470;-72
2022/06/16 03:47:42;;;;;;;29.27;27.33;;;19.00;63.20;;;;;;4971606;28;20517;-72
2022/06/16 03:50:13;;;;;;;30.17;28.03;;;19.20;63.00;;;;;;4967725;28;20569;-73
2022/06/16 03:52:40;;;;;;;29.33;27.43;;;19.30;63.00;;;;;;4971605;28;20549;-71
2022/06/16 03:55:10;;;;;;;28.50;26.83;;;19.70;62.10;;;;;;4973907;28;20479;-72
2022/06/16 03:57:37;;;;;;;28.17;26.57;;;20.00;61.40;;;;;;4974043;28;21274;-71
2022/06/16 04:00:05;;;;;;;29.00;27.30;;;20.30;60.70;;;;;;4967175;28;20558;-72
2022/06/16 04:02:32;;;;;;;28.73;27.13;;;20.60;59.60;;;;;;4970452;28;20549;-74
2022/06/16 04:05:00;;;;;;;29.27;27.57;;;20.90;58.90;;;;;;4977701;28;20451;-72
2022/06/16 04:07:28;;;;;;;29.53;27.87;;;21.00;58.30;;;;;;4979151;28;20502;-72
2022/06/16 04:09:56;;;;;;;28.60;27.00;;;21.00;58.50;;;;;;4973950;28;20454;-72
2022/06/16 04:12:24;;;;;;;29.40;27.73;;;21.00;59.00;;;;;;4979798;28;20538;-71
2022/06/16 04:14:51;;;;;;;28.93;27.20;;;21.10;58.80;;;;;;4971233;28;20484;-72
2022/06/16 04:17:18;;;;;;;30.00;28.20;;;21.10;58.80;;;;;;4979707;28;20600;-72
2022/06/16 04:22:26;;;;;;;28.87;27.07;;;21.30;58.80;;;;;;4974487;28;20453;-72
2022/06/16 04:24:54;;;;;;;28.60;26.90;;;21.40;58.60;;;;;;4981182;28;20660;-72
2022/06/16 04:27:21;;;;;;;28.20;26.70;;;21.50;58.20;;;;;;4972662;28;20823;-72
2022/06/16 04:29:50;;;;;;;28.30;26.57;;;21.50;58.30;;;;;;4973583;28;20538;-72
2022/06/16 04:32:17;;;;;;;27.50;25.90;;;21.40;58.80;;;;;;4972043;28;20490;-72
2022/06/16 04:34:45;;;;;;;28.30;26.70;;;21.30;58.40;;;;;;4969339;28;20517;-71
2022/06/16 04:37:12;;;;;;;28.40;26.70;;;21.30;59.10;;;;;;4975700;28;20524;-72
2022/06/16 04:39:39;;;;;;;28.00;26.50;;;21.40;58.70;;;;;;4969924;28;20978;-70
2022/06/16 04:42:07;;;;;;;27.87;26.20;;;21.40;58.30;;;;;;4971400;28;20559;-70
2022/06/16 04:44:34;;;;;;;28.30;26.70;;;21.50;58.10;;;;;;4974531;28;20461;-70
2022/06/16 04:47:03;;;;;;;28.50;26.73;;;21.50;58.10;;;;;;4973760;28;20489;-70
2022/06/16 04:49:30;;;;;;;28.87;27.00;;;21.60;57.90;;;;;;4973465;28;20543;-70
2022/06/16 04:51:57;;;;;;;29.50;27.90;;;21.60;58.00;;;;;;4976174;28;20490;-70
2022/06/16 04:54:24;;;;;;;28.90;27.20;;;21.50;58.20;;;;;;4971501;28;20486;-69
2022/06/16 04:56:52;;;;;;;29.50;27.83;;;21.50;58.40;;;;;;4956826;28;20573;-70
2022/06/16 04:59:19;;;;;;;29.03;27.40;;;21.60;58.60;;;;;;4973295;28;20551;-70
2022/06/16 05:01:46;;;;;;;29.80;28.20;;;21.70;57.80;;;;;;4975641;28;20582;-70
2022/06/16 05:04:14;;;;;;;28.30;26.80;;;21.80;57.50;;;;;;4975531;28;20491;-70
2022/06/16 05:06:41;;;;;;;30.17;28.30;;;21.70;57.80;;;;;;4969740;28;20571;-73
2022/06/16 05:09:08;;;;;;;29.50;27.90;;;21.60;58.40;;;;;;4976280;28;20471;-72
2022/06/16 05:11:35;;;;;;;29.10;27.40;;;21.50;59.00;;;;;;4969553;28;20461;-72
2022/06/16 05:14:02;;;;;;;28.63;26.93;;;21.60;58.50;;;;;;4979318;28;21023;-71
2022/06/16 05:16:30;;;;;;;28.90;27.30;;;21.60;58.00;;;;;;4974443;28;20561;-71
2022/06/16 05:18:57;;;;;;;29.50;27.60;;;21.70;58.30;;;;;;4974235;28;20472;-72
2022/06/16 05:21:25;;;;;;;28.80;27.13;;;21.70;59.00;;;;;;4972647;28;20545;-73
2022/06/16 05:23:52;;;;;;;29.23;27.53;;;21.70;59.00;;;;;;4977173;28;21172;-72
2022/06/16 05:26:19;;;;;;;29.53;27.73;;;21.90;57.90;;;;;;4972371;28;20566;-73
2022/06/16 05:28:46;;;;;;;29.53;27.77;;;22.00;57.70;;;;;;4969354;28;20890;-73
2022/06/16 05:31:13;;;;;;;31.63;28.97;;;22.10;58.10;;;;;;4982896;28;20545;-72
2022/06/16 05:33:40;;;;;;;30.43;28.63;;;22.40;57.90;;;;;;4964622;28;20565;-72
2022/06/16 05:36:09;;;;;;;30.07;28.37;;;22.70;58.00;;;;;;4970542;28;20514;-73
2022/06/16 05:38:37;;;;;;;29.80;28.20;;;22.90;57.60;;;;;;4967796;28;20539;-72
2022/06/16 05:41:07;;;;;;;32.60;30.60;;;23.00;56.60;;;;;;4969925;28;20547;-72
2022/06/16 05:43:35;;;;;;;37.73;35.40;;;23.00;57.00;;;;;;4974103;28;20490;-72
2022/06/16 05:46:02;;;;;;;33.97;31.87;;;23.10;57.40;;;;;;4970588;28;20520;-72
2022/06/16 05:48:29;;;;;;;31.63;29.63;;;23.30;57.70;;;;;;4976975;28;20472;-72
2022/06/16 05:50:56;;;;;;;30.23;28.33;;;23.50;55.90;;;;;;4973695;28;20464;-72
2022/06/16 05:53:23;;;;;;;30.67;28.87;;;23.60;55.30;;;;;;4969449;28;20508;-72
2022/06/16 05:55:52;;;;;;;31.30;29.47;;;23.70;54.80;;;;;;4967645;28;20562;-72
2022/06/16 05:58:19;;;;;;;36.00;33.80;;;23.80;54.50;;;;;;4972665;28;20520;-72
2022/06/16 06:00:46;;;;;;;31.23;29.43;;;23.90;54.70;;;;;;4981823;28;20545;-72
2022/06/16 06:03:13;;;;;;;34.83;32.33;;;23.90;54.10;;;;;;4969954;28;21024;-75
2022/06/16 06:05:40;;;;;;;32.73;30.60;;;23.90;54.40;;;;;;4972696;28;20841;-72
2022/06/16 06:16:26;;;;;;;30.63;28.83;;;23.90;55.00;;;;;;4974589;28;20489;-74
2022/06/16 06:18:53;;;;;;;31.00;29.20;;;23.90;54.60;;;;;;4979097;28;20560;-73
2022/06/16 06:21:58;;;;;;;30.90;28.70;;;23.90;54.70;;;;;;4970977;28;20541;-75
2022/06/16 06:24:08;;;;;;;28.95;27.10;;;23.90;54.60;;;;;;4966518;28;20464;-72
2022/06/16 06:26:37;;;;;;;31.63;29.77;;;24.20;54.80;;;;;;4972835;28;20225;-73
2022/06/16 06:29:05;;;;;;;34.80;32.00;;;24.20;54.80;;;;;;4964809;28;20503;-73
2022/06/16 06:31:32;;;;;;;31.30;29.60;;;24.30;54.50;;;;;;4982244;28;20551;-74
2022/06/16 06:33:59;;;;;;;30.30;28.50;;;24.30;54.40;;;;;;4966770;28;20550;-76
2022/06/16 06:36:26;;;;;;;30.30;28.60;;;24.50;54.00;;;;;;4967628;28;20545;-72
2022/06/16 06:38:53;;;;;;;29.53;27.73;;;24.70;52.90;;;;;;4965488;28;20474;-73
2022/06/16 06:41:20;;;;;;;33.40;31.47;;;24.80;52.80;;;;;;4966394;28;20482;-71
2022/06/16 06:43:49;;;;;;;31.47;29.50;;;24.90;51.80;;;;;;4966788;28;20482;-72
2022/06/16 06:46:15;;;;;;;32.83;30.93;;;25.10;51.20;;;;;;4967064;28;20498;-73
2022/06/16 06:48:42;;;;;;;31.60;29.80;;;25.40;50.90;;;;;;4969368;28;20550;-73
2022/06/16 06:51:10;;;;;;;31.70;29.70;;;25.70;50.80;;;;;;4970701;28;20466;-73
2022/06/16 06:53:37;;;;;;;32.83;30.80;;;26.00;50.20;;;;;;4968233;28;20499;-73
2022/06/16 06:56:04;;;;;;;32.17;29.97;;;26.20;49.40;;;;;;4969123;28;20590;-74
2022/06/16 06:58:33;;;;;;;34.57;32.27;;;26.50;48.90;;;;;;4966376;28;20577;-72
2022/06/16 07:01:01;;;;;;;32.93;30.93;;;26.60;47.70;;;;;;4962703;28;20464;-73
2022/06/16 07:03:29;;;;;;;32.20;30.30;;;26.40;47.80;;;;;;4955554;28;20833;-73
2022/06/16 07:05:56;;;;;;;32.40;30.60;;;26.30;48.50;;;;;;4956237;28;20459;-74
2022/06/16 07:08:23;;;;;;;33.10;30.87;;;26.20;48.70;;;;;;4963741;28;20473;-73
2022/06/16 07:10:50;;;;;;;32.93;31.03;;;26.20;48.80;;;;;;4965428;28;20544;-72
2022/06/16 07:13:17;;;;;;;32.03;30.13;;;26.20;48.80;;;;;;4965749;28;20475;-74
2022/06/16 07:15:44;;;;;;;33.47;31.47;;;26.30;48.50;;;;;;4958507;28;20483;-71
2022/06/16 07:18:13;;;;;;;33.37;31.47;;;26.40;48.40;;;;;;4963068;28;20903;-71
2022/06/16 07:20:40;;;;;;;32.10;30.20;;;26.50;48.40;;;;;;4964514;28;20455;-71
2022/06/16 07:23:07;;;;;;;35.13;32.90;;;26.50;47.60;;;;;;4969531;28;20551;-71
2022/06/16 07:25:34;;;;;;;32.53;30.33;;;26.30;48.10;;;;;;4964361;28;20460;-71
2022/06/16 07:28:01;;;;;;;33.50;31.40;;;26.20;48.70;;;;;;4967254;28;20606;-71
2022/06/16 07:30:28;;;;;;;33.90;31.70;;;26.40;49.10;;;;;;4976768;28;20558;-71
2022/06/16 07:32:55;;;;;;;33.23;31.23;;;26.60;48.70;;;;;;4967894;28;20853;-71
2022/06/16 07:35:25;;;;;;;33.07;30.90;;;26.60;49.20;;;;;;4964596;28;20477;-71
2022/06/16 07:37:52;;;;;;;32.53;30.53;;;26.70;49.60;;;;;;4957535;28;20606;-70
2022/06/16 07:40:20;;;;;;;34.47;32.27;;;26.80;49.50;;;;;;4971946;28;20472;-70
2022/06/16 07:42:47;;;;;;;33.07;30.97;;;26.70;49.50;;;;;;4969005;28;20469;-71
2022/06/16 07:45:15;;;;;;;33.67;31.40;;;26.80;49.80;;;;;;4964691;28;20556;-70
2022/06/16 07:47:42;;;;;;;31.93;30.03;;;26.70;50.00;;;;;;4963725;28;20514;-71
2022/06/16 07:50:12;;;;;;;33.13;31.13;;;26.80;50.30;;;;;;4962063;28;21000;-72
2022/06/16 07:52:40;;;;;;;33.70;31.70;;;26.90;49.90;;;;;;4972232;28;20548;-71
2022/06/16 07:55:12;;;;;;;33.10;30.80;;;26.80;49.70;;;;;;4966566;28;20491;-71
2022/06/16 07:57:43;;;;;;;32.70;30.73;;;26.80;49.30;;;;;;4965088;28;20577;-71
2022/06/16 08:00:13;;;;;;;32.80;30.70;;;26.60;50.00;;;;;;4967313;28;20461;-71
2022/06/16 08:02:39;;;;;;;32.00;30.10;;;26.60;50.20;;;;;;4970135;28;20464;-71
2022/06/16 08:05:07;;;;;;;33.17;30.87;;;26.50;50.50;;;;;;4964824;28;21010;-71
2022/06/16 08:07:35;;;;;;;32.93;30.90;;;26.40;51.00;;;;;;4967941;28;20957;-70
2022/06/16 08:10:06;;;;;;;33.60;31.30;;;26.20;51.90;;;;;;4974666;28;21016;-71
2022/06/16 08:12:34;;;;;;;34.53;32.37;;;26.40;52.40;;;;;;4969380;28;22326;-72
2022/06/16 08:15:03;;;;;;;34.50;32.10;;;26.40;52.70;;;;;;4965620;28;20513;-71
2022/06/16 08:17:33;;;;;;;33.70;31.80;;;26.50;52.90;;;;;;4966970;28;20483;-71
2022/06/16 08:20:02;;;;;;;33.90;31.87;;;26.40;53.20;;;;;;4969377;28;20478;-71
2022/06/16 08:22:29;;;;;;;33.70;31.47;;;26.50;53.30;;;;;;4969388;28;20471;-71
2022/06/16 08:24:57;;;;;;;33.43;31.30;;;26.40;52.10;;;;;;4967744;28;20567;-71
2022/06/16 08:27:29;;;;;;;34.40;32.20;;;26.00;52.50;;;;;;4969883;28;20900;-70
2022/06/16 08:29:56;;;;;;;34.03;31.73;;;26.10;52.70;;;;;;4960697;28;20969;-75
2022/06/16 08:32:24;;;;;;;33.97;31.20;;;26.30;52.60;;;;;;4974494;28;20567;-71
2022/06/16 08:34:51;;;;;;;32.70;30.70;;;26.50;51.50;;;;;;4968753;28;20909;-74
2022/06/16 08:37:21;;;;;;;33.57;31.57;;;26.00;51.50;;;;;;4969945;28;20483;-74
2022/06/16 08:39:48;;;;;;;34.17;31.67;;;25.60;51.90;;;;;;4969155;28;20542;-74
2022/06/16 08:42:26;;;;;;;32.27;30.27;;;25.90;52.90;;;;;;4968519;28;20537;-72
2022/06/16 08:45:02;;;;;;;32.77;30.67;;;25.80;51.10;;;;;;4973739;28;21366;-70
2022/06/16 08:47:38;;;;;;;32.50;30.50;;;25.70;52.10;;;;;;4972923;28;20569;-71
2022/06/16 08:50:21;;;;;;;31.27;29.47;;;25.80;50.10;;;;;;4968306;28;20567;-70
2022/06/16 08:53:00;;;;;;;31.80;29.73;;;25.80;50.10;;;;;;4972109;28;20570;-71
2022/06/16 08:55:37;;;;;;;32.00;30.00;;;25.90;49.60;;;;;;4954673;28;20480;-70
2022/06/16 08:58:12;;;;;;;31.20;29.10;;;25.90;49.90;;;;;;4968907;28;20486;-70
2022/06/16 09:00:47;;;;;;;31.80;29.80;;;26.00;49.60;;;;;;4970498;28;20501;-71
2022/06/16 09:03:21;;;;;;;32.40;30.47;;;26.20;49.80;;;;;;4972879;28;20553;-71
2022/06/16 09:05:53;;;;;;;33.77;31.47;;;26.40;49.70;;;;;;4973062;28;20485;-70
2022/06/16 09:08:37;;;;;;;31.53;29.53;;;26.50;49.30;;;;;;4961541;28;20459;-71
2022/06/16 09:11:11;;;;;;;33.20;31.20;;;26.60;49.10;;;;;;4961539;28;21045;-71
2022/06/16 09:13:58;;;;;;;32.70;30.27;;;26.80;48.20;;;;;;4973473;28;21017;-70
2022/06/16 09:16:36;;;;;;;32.37;30.47;;;26.80;48.20;;;;;;4972753;28;20479;-71
2022/06/16 09:19:39;;;;;;;30.40;28.60;;;26.90;48.10;;;;;;4971303;28;20474;-71
2022/06/16 09:22:20;;;;;;;31.40;29.27;;;26.80;46.70;;;;;;4966380;28;20530;-73
2022/06/16 09:25:17;;;;;;;32.00;29.60;;;26.70;47.00;;;;;;4969708;28;20566;-73
2022/06/16 09:27:49;;;;;;;31.17;29.30;;;26.50;47.40;;;;;;4963706;28;20498;-71
2022/06/16 09:30:19;;;;;;;32.47;30.27;;;26.40;48.80;;;;;;4969563;28;20547;-72
2022/06/16 09:32:53;;;;;;;31.87;29.67;;;26.40;49.20;;;;;;4966300;28;20543;-73
2022/06/16 09:35:25;;;;;;;33.10;30.87;;;26.40;49.80;;;;;;4966669;28;20480;-74
2022/06/16 09:37:59;;;;;;;34.00;31.80;;;26.50;49.00;;;;;;4970423;28;21338;-75
2022/06/16 09:40:29;;;;;;;32.00;30.10;;;26.60;49.50;;;;;;4968233;28;20463;-74
2022/06/16 09:43:01;;;;;;;32.77;30.53;;;26.70;49.60;;;;;;4966239;28;20868;-73
2022/06/16 09:45:33;;;;;;;32.90;30.80;;;26.60;50.50;;;;;;4977275;28;20467;-72
2022/06/16 09:48:07;;;;;;;32.20;30.20;;;26.50;50.90;;;;;;4969860;28;20533;-73
2022/06/16 09:50:43;;;;;;;33.80;31.73;;;26.60;50.70;;;;;;4970057;28;20529;-74
2022/06/16 09:53:17;;;;;;;33.33;31.23;;;27.00;50.70;;;;;;4965220;28;20530;-71
2022/06/16 09:55:49;;;;;;;32.00;29.90;;;27.20;50.20;;;;;;4961034;28;20533;-71
2022/06/16 09:58:32;;;;;;;32.47;30.43;;;27.20;48.80;;;;;;4967770;28;20556;-71
2022/06/16 10:01:02;;;;;;;34.23;32.00;;;26.90;49.00;;;;;;4964934;28;20975;-72
2022/06/16 10:03:35;;;;;;;33.87;31.87;;;26.70;50.20;;;;;;4968791;28;20497;-72
2022/06/16 10:06:14;;;;;;;32.60;30.50;;;26.50;50.80;;;;;;4968844;28;20507;-71
2022/06/16 10:08:47;;;;;;;33.10;31.10;;;26.60;50.80;;;;;;4970754;28;20503;-71
2022/06/16 10:11:26;;;;;;;35.10;33.00;;;26.70;50.30;;;;;;4965623;28;20462;-72
2022/06/16 10:14:03;;;;;;;35.07;32.77;;;26.70;50.50;;;;;;4965244;28;20464;-71
2022/06/16 10:16:37;;;;;;;33.70;31.50;;;26.90;50.50;;;;;;4976413;28;21026;-71
2022/06/16 10:19:07;;;;;;;34.23;32.13;;;26.90;50.80;;;;;;4967203;28;20553;-71
2022/06/16 10:21:35;;;;;;;33.80;31.70;;;26.80;51.40;;;;;;4973113;28;20458;-72
2022/06/16 10:24:05;;;;;;;33.70;31.70;;;26.70;51.80;;;;;;4972619;28;20468;-71
2022/06/16 10:26:34;;;;;;;32.40;30.50;;;26.70;52.00;;;;;;4981980;28;20501;-71
2022/06/16 10:29:06;;;;;;;31.43;29.63;;;26.70;51.60;;;;;;4966542;28;21048;-71
2022/06/16 10:31:38;;;;;;;34.30;32.30;;;26.90;51.80;;;;;;4966522;28;21040;-70
2022/06/16 10:34:18;;;;;;;33.60;31.63;;;26.80;51.40;;;;;;4968882;28;20487;-71
2022/06/16 10:36:51;;;;;;;34.00;31.93;;;26.60;52.20;;;;;;4967406;28;20482;-71
2022/06/16 10:39:22;;;;;;;36.50;34.10;;;26.40;53.10;;;;;;4967410;28;20969;-71
2022/06/16 10:41:55;;;;;;;31.90;29.80;;;26.60;52.90;;;;;;4966856;28;21047;-71
2022/06/16 10:44:25;;;;;;;31.37;29.47;;;26.70;51.50;;;;;;4967089;28;20560;-71
2022/06/16 10:46:55;;;;;;;32.00;30.00;;;27.00;51.60;;;;;;4982373;28;21047;-71
2022/06/16 10:49:28;;;;;;;33.10;30.83;;;27.20;50.80;;;;;;4971153;28;20471;-71
2022/06/16 10:51:58;;;;;;;32.17;30.20;;;27.30;50.20;;;;;;4967117;28;20470;-71
2022/06/16 10:54:30;;;;;;;32.70;30.80;;;27.00;50.70;;;;;;4971268;28;20561;-71
2022/06/16 10:57:12;;;;;;;31.77;29.77;;;26.60;51.60;;;;;;4968604;28;20943;-71
2022/06/16 10:59:43;;;;;;;33.43;31.20;;;26.80;51.10;;;;;;4968653;28;20466;-71
2022/06/16 11:02:25;;;;;;;33.10;30.90;;;26.90;51.50;;;;;;4985499;28;20670;-70
2022/06/16 11:05:01;;;;;;;32.40;30.40;;;27.20;50.90;;;;;;4976186;28;20464;-70
2022/06/16 11:07:30;;;;;;;32.80;30.70;;;27.20;50.80;;;;;;4974422;28;20486;-70
2022/06/16 11:10:08;;;;;;;34.27;32.07;;;27.10;48.60;;;;;;4976385;28;20456;-70
2022/06/16 11:12:38;;;;;;;34.73;32.20;;;27.10;49.50;;;;;;4975148;28;21039;-71
2022/06/16 11:15:22;;;;;;;33.83;31.70;;;27.30;49.70;;;;;;4970991;28;20864;-71
2022/06/16 11:17:53;;;;;;;33.53;31.50;;;27.50;49.70;;;;;;4965459;28;20571;-71
2022/06/16 11:20:39;;;;;;;32.10;29.77;;;27.60;49.50;;;;;;4957208;28;20555;-71
2022/06/16 11:23:20;;;;;;;33.60;31.63;;;27.60;49.10;;;;;;4971611;28;20967;-71
2022/06/16 11:25:48;;;;;;;32.93;30.60;;;27.50;49.20;;;;;;4977226;28;20480;-70
2022/06/16 11:28:20;;;;;;;33.83;31.83;;;27.40;49.70;;;;;;4972982;28;20501;-70
2022/06/16 11:30:56;;;;;;;31.67;29.80;;;27.20;49.50;;;;;;4966364;28;20561;-70
2022/06/16 11:36:22;;;;;;;32.23;30.33;;;27.20;49.70;;;;;;4980864;28;20836;-70
2022/06/16 11:38:57;;;;;;;33.23;31.20;;;27.30;50.00;;;;;;4971450;28;20552;-71
2022/06/16 11:41:26;;;;;;;34.17;31.80;;;27.40;49.90;;;;;;4969371;28;20500;-71
2022/06/16 11:44:07;;;;;;;32.80;30.77;;;27.20;50.40;;;;;;4976519;28;21048;-70
2022/06/16 11:46:42;;;;;;;34.70;32.30;;;27.20;50.20;;;;;;4967792;28;20488;-71
2022/06/16 11:49:23;;;;;;;33.97;31.90;;;27.20;50.40;;;;;;4965922;28;20455;-71
2022/06/16 11:52:01;;;;;;;33.83;31.47;;;27.30;50.00;;;;;;4964333;28;20993;-72
2022/06/16 11:54:39;;;;;;;31.20;29.20;;;27.30;49.20;;;;;;4970484;28;20554;-72
2022/06/16 11:57:14;;;;;;;32.80;30.70;;;27.20;49.00;;;;;;4969470;28;20483;-70
2022/06/16 11:59:58;;;;;;;31.13;29.43;;;27.40;48.20;;;;;;4967297;28;20456;-70
2022/06/16 12:02:47;;;;;;;33.47;31.27;;;27.60;48.00;;;;;;4969743;28;20559;-71
2022/06/16 12:05:28;;;;;;;32.27;30.17;;;27.70;47.80;;;;;;4958920;28;21087;-72
2022/06/16 12:08:25;;;;;;;33.47;31.30;;;27.50;46.80;;;;;;4967669;28;20588;-71
2022/06/16 12:10:53;;;;;;;33.27;31.07;;;27.60;47.70;;;;;;4972997;28;20497;-72
2022/06/16 12:13:29;;;;;;;33.20;30.80;;;27.60;48.00;;;;;;4959349;28;20462;-71
2022/06/16 12:16:00;;;;;;;31.70;29.70;;;27.60;46.80;;;;;;4970124;28;20569;-70
2022/06/16 12:18:57;;;;;;;31.87;29.73;;;27.80;46.60;;;;;;4972723;28;20594;-70
2022/06/16 12:21:31;;;;;;;29.87;28.17;;;27.60;45.70;;;;;;4965172;28;20602;-70
2022/06/16 12:24:08;;;;;;;32.47;30.50;;;27.40;44.60;;;;;;4970637;28;20519;-70
2022/06/16 12:26:53;;;;;;;31.07;29.17;;;27.20;46.30;;;;;;4970919;28;20599;-69
2022/06/16 12:29:31;;;;;;;32.23;30.23;;;27.20;47.30;;;;;;4963708;28;20487;-68
2022/06/16 12:32:09;;;;;;;33.70;31.70;;;27.30;47.90;;;;;;4976410;28;20929;-69
2022/06/16 12:34:49;;;;;;;32.57;30.47;;;27.60;47.30;;;;;;4970765;28;20488;-70
2022/06/16 12:37:20;;;;;;;32.13;30.10;;;27.60;47.10;;;;;;4957162;28;20519;-69
2022/06/16 12:39:58;;;;;;;31.87;29.87;;;27.60;47.40;;;;;;4964568;28;20462;-75
2022/06/16 12:42:31;;;;;;;31.27;29.23;;;27.80;46.00;;;;;;4971030;28;20475;-72
2022/06/16 12:45:03;;;;;;;30.50;28.70;;;27.70;45.80;;;;;;4966454;28;20482;-71
2022/06/16 12:47:36;;;;;;;32.73;30.67;;;27.50;45.30;;;;;;4963276;28;20560;-69
2022/06/16 12:50:08;;;;;;;30.33;28.33;;;27.60;45.50;;;;;;4969422;28;20956;-70
2022/06/16 12:52:39;;;;;;;31.80;29.90;;;27.70;45.00;;;;;;4969465;28;20858;-69
2022/06/16 12:55:11;;;;;;;33.60;31.47;;;27.70;45.40;;;;;;4970825;28;20802;-72
2022/06/16 12:57:41;;;;;;;31.27;29.20;;;27.90;44.40;;;;;;4972021;28;20588;-71
2022/06/16 13:00:13;;;;;;;30.70;28.93;;;27.90;44.10;;;;;;4977996;28;20550;-70
2022/06/16 13:02:45;;;;;;;31.70;29.77;;;27.90;44.80;;;;;;4960716;28;20463;-72
2022/06/16 13:05:14;;;;;;;33.63;31.57;;;27.90;45.00;;;;;;4967488;28;20465;-72
2022/06/16 13:07:45;;;;;;;30.60;28.60;;;27.80;44.70;;;;;;4970278;28;20478;-69
2022/06/16 13:10:14;;;;;;;31.13;29.23;;;27.70;43.90;;;;;;4976853;28;20460;-69